sensor_id;sensor_type;location;lat;lon;timestamp;pressure;altitude;pressure_sealevel;temperature;humidity
13765;BME280;6953;48.810;9.204;2024-03-02T00:00:34;97392.63;;;7.41;100.00
13765;BME280;6953;48.810;9.204;2024-03-02T00:02:59;97617.53;;;8.75;100.00
13765;BME280;6953;48.810;9.204;2024-03-02T00:05:24;97620.41;;;8.70;100.00
13765;BME280;6953;48.810;9.204;2024-03-02T00:10:20;97604.75;;;8.56;100.00
13765;BME280;6953;48.810;9.204;2024-03-02T00:12:48;97600.28;;;8.44;100.00
13765;BME280;6953;48.810;9.204;2024-03-02T00:15:26;97643.22;;;8.54;100.00
13765;BME280;6953;48.810;9.204;2024-03-02T00:17:58;97613.38;;;8.44;100.00
13765;BME280;6953;48.810;9.204;2024-03-02T00:20:26;97616.16;;;8.41;100.00
13765;BME280;6953;48.810;9.204;2024-03-02T00:23:03;97624.75;;;8.43;100.00
13765;BME280;6953;48.810;9.204;2024-03-02T00:25:39;97618.97;;;8.38;100.00
13765;BME280;6953;48.810;9.204;2024-03-02T00:28:11;97430.34;;;7.22;100.00
13765;BME280;6953;48.810;9.204;2024-03-02T00:33:23;97625.94;;;8.24;100.00
13765;BME280;6953;48.810;9.204;2024-03-02T00:35:49;97575.16;;;7.86;100.00
13765;BME280;6953;48.810;9.204;2024-03-02T00:38:15;97474.31;;;7.28;100.00
13765;BME280;6953;48.810;9.204;2024-03-02T00:40:42;97553.97;;;7.63;100.00
13765;BME280;6953;48.810;9.204;2024-03-02T00:43:35;97438.59;;;7.01;100.00
13765;BME280;6953;48.810;9.204;2024-03-02T00:46:03;97629.53;;;8.08;100.00
13765;BME280;6953;48.810;9.204;2024-03-02T00:48:29;97613.22;;;8.04;100.00
13765;BME280;6953;48.810;9.204;2024-03-02T00:50:56;97471.78;;;7.13;100.00
13765;BME280;6953;48.810;9.204;2024-03-02T00:53:24;97620.28;;;8.02;100.00
13765;BME280;6953;48.810;9.204;2024-03-02T00:55:51;97542.19;;;7.56;100.00
13765;BME280;6953;48.810;9.204;2024-03-02T00:58:17;97643.03;;;8.00;100.00
13765;BME280;6953;48.810;9.204;2024-03-02T01:00:42;97612.91;;;7.95;100.00
13765;BME280;6953;48.810;9.204;2024-03-02T01:03:07;97641.81;;;7.92;100.00
13765;BME280;6953;48.810;9.204;2024-03-02T01:05:36;97616.00;;;8.01;100.00
13765;BME280;6953;48.810;9.204;2024-03-02T01:08:01;97575.88;;;7.74;100.00
13765;BME280;6953;48.810;9.204;2024-03-02T01:10:26;97618.03;;;7.96;100.00
13765;BME280;6953;48.810;9.204;2024-03-02T01:12:52;97623.47;;;7.93;100.00
13765;BME280;6953;48.810;9.204;2024-03-02T01:15:17;97641.06;;;7.90;100.00
13765;BME280;6953;48.810;9.204;2024-03-02T01:17:42;97413.81;;;6.64;100.00
13765;BME280;6953;48.810;9.204;2024-03-02T01:20:08;97623.41;;;7.79;100.00
13765;BME280;6953;48.810;9.204;2024-03-02T01:22:34;97622.13;;;7.72;100.00
13765;BME280;6953;48.810;9.204;2024-03-02T01:25:01;97619.75;;;7.68;100.00
13765;BME280;6953;48.810;9.204;2024-03-02T01:27:26;97389.06;;;6.13;100.00
13765;BME280;6953;48.810;9.204;2024-03-02T01:29:53;97622.16;;;7.57;100.00
13765;BME280;6953;48.810;9.204;2024-03-02T01:32:19;97325.69;;;5.83;100.00
13765;BME280;6953;48.810;9.204;2024-03-02T01:34:45;97599.91;;;7.36;100.00
13765;BME280;6953;48.810;9.204;2024-03-02T01:37:10;97346.81;;;5.77;100.00
13765;BME280;6953;48.810;9.204;2024-03-02T01:39:35;97623.41;;;7.36;100.00
13765;BME280;6953;48.810;9.204;2024-03-02T01:42:02;97615.53;;;7.22;100.00
13765;BME280;6953;48.810;9.204;2024-03-02T01:44:27;97635.38;;;7.24;100.00
13765;BME280;6953;48.810;9.204;2024-03-02T01:46:52;97633.63;;;7.10;100.00
13765;BME280;6953;48.810;9.204;2024-03-02T01:49:18;97631.00;;;7.10;100.00
13765;BME280;6953;48.810;9.204;2024-03-02T01:51:44;97614.50;;;6.94;100.00
13765;BME280;6953;48.810;9.204;2024-03-02T01:54:09;97630.94;;;6.80;100.00
13765;BME280;6953;48.810;9.204;2024-03-02T01:56:34;97627.91;;;6.88;100.00
13765;BME280;6953;48.810;9.204;2024-03-02T01:58:59;97531.41;;;6.27;100.00
13765;BME280;6953;48.810;9.204;2024-03-02T02:01:25;97620.91;;;6.73;100.00
13765;BME280;6953;48.810;9.204;2024-03-02T02:03:51;97353.88;;;5.11;100.00
13765;BME280;6953;48.810;9.204;2024-03-02T02:06:17;97645.56;;;6.52;100.00
13765;BME280;6953;48.810;9.204;2024-03-02T02:08:42;97368.13;;;5.05;100.00
13765;BME280;6953;48.810;9.204;2024-03-02T02:11:07;97533.13;;;5.96;100.00
13765;BME280;6953;48.810;9.204;2024-03-02T02:13:32;97620.75;;;6.45;100.00
13765;BME280;6953;48.810;9.204;2024-03-02T02:16:05;97601.13;;;6.38;100.00
13765;BME280;6953;48.810;9.204;2024-03-02T02:18:31;97606.84;;;6.29;100.00
13765;BME280;6953;48.810;9.204;2024-03-02T02:20:57;97419.03;;;5.09;100.00
13765;BME280;6953;48.810;9.204;2024-03-02T02:23:24;97530.94;;;5.72;100.00
13765;BME280;6953;48.810;9.204;2024-03-02T02:25:49;97608.41;;;6.16;100.00
13765;BME280;6953;48.810;9.204;2024-03-02T02:28:14;97600.69;;;6.15;100.00
13765;BME280;6953;48.810;9.204;2024-03-02T02:30:40;97611.50;;;6.07;100.00
13765;BME280;6953;48.810;9.204;2024-03-02T02:33:06;97601.16;;;6.06;100.00
13765;BME280;6953;48.810;9.204;2024-03-02T02:35:31;97275.75;;;4.17;100.00
13765;BME280;6953;48.810;9.204;2024-03-02T02:37:57;97485.63;;;5.43;100.00
13765;BME280;6953;48.810;9.204;2024-03-02T02:40:23;97597.59;;;6.23;100.00
13765;BME280;6953;48.810;9.204;2024-03-02T02:42:49;97595.53;;;6.13;100.00
13765;BME280;6953;48.810;9.204;2024-03-02T02:45:14;97582.50;;;6.30;100.00
13765;BME280;6953;48.810;9.204;2024-03-02T02:47:44;97477.72;;;5.79;100.00
13765;BME280;6953;48.810;9.204;2024-03-02T02:50:10;97448.34;;;5.60;100.00
13765;BME280;6953;48.810;9.204;2024-03-02T02:52:37;97379.16;;;5.25;100.00
13765;BME280;6953;48.810;9.204;2024-03-02T02:55:05;97575.19;;;6.36;100.00
13765;BME280;6953;48.810;9.204;2024-03-02T02:57:34;97337.25;;;4.99;100.00
13765;BME280;6953;48.810;9.204;2024-03-02T03:00:10;97365.63;;;5.18;100.00
13765;BME280;6953;48.810;9.204;2024-03-02T03:02:40;97439.59;;;5.61;100.00
13765;BME280;6953;48.810;9.204;2024-03-02T03:05:07;97567.13;;;6.41;100.00
13765;BME280;6953;48.810;9.204;2024-03-02T03:07:33;97583.09;;;6.50;100.00
13765;BME280;6953;48.810;9.204;2024-03-02T03:09:59;97285.50;;;4.79;100.00
13765;BME280;6953;48.810;9.204;2024-03-02T03:12:24;97575.13;;;6.53;100.00
13765;BME280;6953;48.810;9.204;2024-03-02T03:14:50;97569.81;;;6.55;100.00
13765;BME280;6953;48.810;9.204;2024-03-02T03:17:15;97590.16;;;6.48;100.00
13765;BME280;6953;48.810;9.204;2024-03-02T03:19:40;97583.53;;;6.58;100.00
13765;BME280;6953;48.810;9.204;2024-03-02T03:22:05;97489.56;;;6.00;100.00
13765;BME280;6953;48.810;9.204;2024-03-02T03:24:31;97384.69;;;5.34;100.00
13765;BME280;6953;48.810;9.204;2024-03-02T03:26:58;97558.72;;;6.36;100.00
13765;BME280;6953;48.810;9.204;2024-03-02T03:29:23;97588.22;;;6.52;100.00
13765;BME280;6953;48.810;9.204;2024-03-02T03:31:48;97499.13;;;5.99;100.00
13765;BME280;6953;48.810;9.204;2024-03-02T03:34:13;97357.94;;;5.00;100.00
13765;BME280;6953;48.810;9.204;2024-03-02T03:36:41;97589.97;;;6.20;100.00
13765;BME280;6953;48.810;9.204;2024-03-02T03:39:06;97568.94;;;6.08;100.00
13765;BME280;6953;48.810;9.204;2024-03-02T03:41:31;97484.16;;;5.55;100.00
13765;BME280;6953;48.810;9.204;2024-03-02T03:43:57;97585.06;;;6.15;100.00
13765;BME280;6953;48.810;9.204;2024-03-02T03:46:22;97588.66;;;6.12;100.00
13765;BME280;6953;48.810;9.204;2024-03-02T03:48:47;97579.75;;;6.01;100.00
13765;BME280;6953;48.810;9.204;2024-03-02T03:51:12;97582.06;;;5.90;100.00
13765;BME280;6953;48.810;9.204;2024-03-02T03:53:38;97596.38;;;5.81;100.00
13765;BME280;6953;48.810;9.204;2024-03-02T03:56:03;97264.72;;;3.79;100.00
13765;BME280;6953;48.810;9.204;2024-03-02T03:58:29;97383.47;;;4.43;100.00
13765;BME280;6953;48.810;9.204;2024-03-02T04:00:54;97516.41;;;5.18;100.00
13765;BME280;6953;48.810;9.204;2024-03-02T04:03:19;97585.81;;;5.50;100.00
13765;BME280;6953;48.810;9.204;2024-03-02T04:05:44;97587.88;;;5.44;100.00
13765;BME280;6953;48.810;9.204;2024-03-02T04:08:10;97553.78;;;5.16;100.00
13765;BME280;6953;48.810;9.204;2024-03-02T04:10:36;97322.00;;;3.74;100.00
13765;BME280;6953;48.810;9.204;2024-03-02T04:13:02;97583.13;;;5.01;100.00
13765;BME280;6953;48.810;9.204;2024-03-02T04:15:27;97588.94;;;5.23;100.00
13765;BME280;6953;48.810;9.204;2024-03-02T04:17:52;97312.38;;;3.59;100.00
13765;BME280;6953;48.810;9.204;2024-03-02T04:20:18;97591.00;;;5.16;100.00
13765;BME280;6953;48.810;9.204;2024-03-02T04:22:43;97566.16;;;4.94;100.00
13765;BME280;6953;48.810;9.204;2024-03-02T04:25:08;97591.09;;;5.15;100.00
13765;BME280;6953;48.810;9.204;2024-03-02T04:27:34;97592.16;;;5.11;100.00
13765;BME280;6953;48.810;9.204;2024-03-02T04:29:59;97293.69;;;3.34;100.00
13765;BME280;6953;48.810;9.204;2024-03-02T04:32:26;97584.81;;;5.02;100.00
13765;BME280;6953;48.810;9.204;2024-03-02T04:34:51;97581.53;;;4.99;100.00
13765;BME280;6953;48.810;9.204;2024-03-02T04:37:16;97589.66;;;5.10;100.00
13765;BME280;6953;48.810;9.204;2024-03-02T04:39:42;97319.38;;;3.57;100.00
13765;BME280;6953;48.810;9.204;2024-03-02T04:42:07;97610.75;;;5.20;100.00
13765;BME280;6953;48.810;9.204;2024-03-02T04:44:32;97505.69;;;4.74;100.00
13765;BME280;6953;48.810;9.204;2024-03-02T04:46:57;97589.34;;;5.32;100.00
13765;BME280;6953;48.810;9.204;2024-03-02T04:49:23;97573.97;;;5.11;100.00
13765;BME280;6953;48.810;9.204;2024-03-02T04:51:48;97475.38;;;4.74;100.00
13765;BME280;6953;48.810;9.204;2024-03-02T04:54:14;97631.13;;;5.46;100.00
13765;BME280;6953;48.810;9.204;2024-03-02T04:56:39;97591.41;;;5.43;100.00
13765;BME280;6953;48.810;9.204;2024-03-02T04:59:15;97588.81;;;5.43;100.00
13765;BME280;6953;48.810;9.204;2024-03-02T05:01:40;97570.84;;;5.21;100.00
13765;BME280;6953;48.810;9.204;2024-03-02T05:04:06;97593.38;;;5.21;100.00
13765;BME280;6953;48.810;9.204;2024-03-02T05:06:31;97341.31;;;3.69;100.00
13765;BME280;6953;48.810;9.204;2024-03-02T05:08:56;97593.69;;;5.15;100.00
13765;BME280;6953;48.810;9.204;2024-03-02T05:11:22;97600.78;;;5.11;100.00
13765;BME280;6953;48.810;9.204;2024-03-02T05:14:02;97635.81;;;5.05;100.00
13765;BME280;6953;48.810;9.204;2024-03-02T05:16:28;97574.31;;;4.87;100.00
13765;BME280;6953;48.810;9.204;2024-03-02T05:18:53;97392.25;;;3.70;100.00
13765;BME280;6953;48.810;9.204;2024-03-02T05:21:18;97314.28;;;3.19;100.00
13765;BME280;6953;48.810;9.204;2024-03-02T05:23:43;97586.91;;;4.77;100.00
13765;BME280;6953;48.810;9.204;2024-03-02T05:26:09;97589.50;;;4.77;100.00
13765;BME280;6953;48.810;9.204;2024-03-02T05:28:38;97295.25;;;3.02;100.00
13765;BME280;6953;48.810;9.204;2024-03-02T05:31:03;97293.09;;;3.11;100.00
13765;BME280;6953;48.810;9.204;2024-03-02T05:33:28;97322.56;;;3.27;100.00
13765;BME280;6953;48.810;9.204;2024-03-02T05:35:55;97585.53;;;4.87;100.00
13765;BME280;6953;48.810;9.204;2024-03-02T05:38:20;97262.50;;;3.01;100.00
13765;BME280;6953;48.810;9.204;2024-03-02T05:40:46;97609.97;;;5.02;100.00
13765;BME280;6953;48.810;9.204;2024-03-02T05:43:12;97605.59;;;5.02;100.00
13765;BME280;6953;48.810;9.204;2024-03-02T05:45:37;97607.75;;;5.11;100.00
13765;BME280;6953;48.810;9.204;2024-03-02T05:48:02;97481.34;;;4.41;100.00
13765;BME280;6953;48.810;9.204;2024-03-02T05:50:28;97611.03;;;5.14;100.00
13765;BME280;6953;48.810;9.204;2024-03-02T05:52:53;97364.88;;;3.64;100.00
13765;BME280;6953;48.810;9.204;2024-03-02T05:55:19;97592.31;;;4.73;100.00
13765;BME280;6953;48.810;9.204;2024-03-02T05:57:44;97632.97;;;5.09;100.00
13765;BME280;6953;48.810;9.204;2024-03-02T06:00:09;97611.28;;;5.10;100.00
13765;BME280;6953;48.810;9.204;2024-03-02T06:02:39;97613.25;;;5.05;100.00
13765;BME280;6953;48.810;9.204;2024-03-02T06:05:04;97598.94;;;4.97;100.00
13765;BME280;6953;48.810;9.204;2024-03-02T06:07:30;97622.81;;;5.05;100.00
13765;BME280;6953;48.810;9.204;2024-03-02T06:09:55;97409.13;;;3.78;100.00
13765;BME280;6953;48.810;9.204;2024-03-02T06:12:20;97612.69;;;4.99;100.00
13765;BME280;6953;48.810;9.204;2024-03-02T06:14:45;97612.94;;;4.94;100.00
13765;BME280;6953;48.810;9.204;2024-03-02T06:17:11;97598.81;;;4.81;100.00
13765;BME280;6953;48.810;9.204;2024-03-02T06:19:36;97625.84;;;4.96;100.00
13765;BME280;6953;48.810;9.204;2024-03-02T06:22:01;97623.19;;;4.97;100.00
13765;BME280;6953;48.810;9.204;2024-03-02T06:24:26;97618.75;;;4.99;100.00
13765;BME280;6953;48.810;9.204;2024-03-02T06:26:52;97617.63;;;5.05;100.00
13765;BME280;6953;48.810;9.204;2024-03-02T06:29:17;97549.91;;;4.72;100.00
13765;BME280;6953;48.810;9.204;2024-03-02T06:31:43;97630.34;;;5.27;100.00
13765;BME280;6953;48.810;9.204;2024-03-02T06:34:08;97321.69;;;3.63;100.00
13765;BME280;6953;48.810;9.204;2024-03-02T06:36:33;97617.34;;;5.61;100.00
13765;BME280;6953;48.810;9.204;2024-03-02T06:38:59;97529.72;;;5.29;100.00
13765;BME280;6953;48.810;9.204;2024-03-02T06:41:24;97364.22;;;4.47;100.00
13765;BME280;6953;48.810;9.204;2024-03-02T06:43:49;97631.63;;;6.20;100.00
13765;BME280;6953;48.810;9.204;2024-03-02T06:46:14;97352.00;;;4.66;100.00
13765;BME280;6953;48.810;9.204;2024-03-02T06:48:40;97659.06;;;6.43;100.00
13765;BME280;6953;48.810;9.204;2024-03-02T06:51:05;97630.72;;;6.37;100.00
13765;BME280;6953;48.810;9.204;2024-03-02T06:53:30;97635.22;;;6.66;100.00
13765;BME280;6953;48.810;9.204;2024-03-02T06:55:58;97594.44;;;6.49;100.00
13765;BME280;6953;48.810;9.204;2024-03-02T06:58:23;97644.06;;;6.94;100.00
13765;BME280;6953;48.810;9.204;2024-03-02T07:00:49;97666.00;;;7.06;100.00
13765;BME280;6953;48.810;9.204;2024-03-02T07:03:14;97635.63;;;7.20;100.00
13765;BME280;6953;48.810;9.204;2024-03-02T07:05:39;97615.97;;;6.99;100.00
13765;BME280;6953;48.810;9.204;2024-03-02T07:08:05;97359.44;;;5.84;100.00
13765;BME280;6953;48.810;9.204;2024-03-02T07:10:31;97629.13;;;7.56;100.00
13765;BME280;6953;48.810;9.204;2024-03-02T07:12:56;97629.38;;;7.67;100.00
13765;BME280;6953;48.810;9.204;2024-03-02T07:15:21;97134.16;;;4.91;100.00
13765;BME280;6953;48.810;9.204;2024-03-02T07:17:52;97485.06;;;7.08;100.00
13765;BME280;6953;48.810;9.204;2024-03-02T07:20:17;97618.25;;;7.93;100.00
13765;BME280;6953;48.810;9.204;2024-03-02T07:22:43;97632.53;;;8.16;100.00
13765;BME280;6953;48.810;9.204;2024-03-02T07:25:08;97594.28;;;8.01;100.00
13765;BME280;6953;48.810;9.204;2024-03-02T07:27:34;97635.94;;;8.31;100.00
13765;BME280;6953;48.810;9.204;2024-03-02T07:30:03;97631.72;;;8.43;100.00
13765;BME280;6953;48.810;9.204;2024-03-02T07:32:29;97445.53;;;7.43;100.00
13765;BME280;6953;48.810;9.204;2024-03-02T07:34:54;97629.00;;;8.72;100.00
13765;BME280;6953;48.810;9.204;2024-03-02T07:37:20;97408.53;;;7.65;100.00
13765;BME280;6953;48.810;9.204;2024-03-02T07:39:46;97626.09;;;9.17;100.00
13765;BME280;6953;48.810;9.204;2024-03-02T07:42:11;97637.63;;;9.41;100.00
13765;BME280;6953;48.810;9.204;2024-03-02T07:44:37;97373.88;;;8.03;100.00
13765;BME280;6953;48.810;9.204;2024-03-02T07:47:03;97436.09;;;8.51;100.00
13765;BME280;6953;48.810;9.204;2024-03-02T07:49:28;97611.81;;;9.74;100.00
13765;BME280;6953;48.810;9.204;2024-03-02T07:51:53;97640.59;;;10.00;100.00
13765;BME280;6953;48.810;9.204;2024-03-02T07:54:18;97568.91;;;9.76;100.00
13765;BME280;6953;48.810;9.204;2024-03-02T07:56:44;97648.63;;;10.36;100.00
13765;BME280;6953;48.810;9.204;2024-03-02T07:59:10;97469.97;;;9.30;99.66
13765;BME280;6953;48.810;9.204;2024-03-02T08:01:35;97553.91;;;9.91;97.66
13765;BME280;6953;48.810;9.204;2024-03-02T08:04:02;97670.09;;;10.41;97.34
13765;BME280;6953;48.810;9.204;2024-03-02T08:06:30;97643.88;;;10.41;96.53
13765;BME280;6953;48.810;9.204;2024-03-02T08:09:00;97647.22;;;10.43;95.28
13765;BME280;6953;48.810;9.204;2024-03-02T08:11:25;97641.16;;;10.42;94.83
13765;BME280;6953;48.810;9.204;2024-03-02T08:13:52;97629.53;;;10.46;93.68
13765;BME280;6953;48.810;9.204;2024-03-02T08:16:19;97677.53;;;10.72;92.05
13765;BME280;6953;48.810;9.204;2024-03-02T08:18:48;97601.13;;;10.76;90.63
13765;BME280;6953;48.810;9.204;2024-03-02T08:21:13;97638.00;;;11.11;89.56
13765;BME280;6953;48.810;9.204;2024-03-02T08:23:39;97275.31;;;8.83;87.60
13765;BME280;6953;48.810;9.204;2024-03-02T08:26:06;97616.84;;;11.48;86.69
13765;BME280;6953;48.810;9.204;2024-03-02T08:28:31;97623.75;;;11.96;85.57
13765;BME280;6953;48.810;9.204;2024-03-02T08:30:57;97618.72;;;12.60;81.34
13765;BME280;6953;48.810;9.204;2024-03-02T08:33:22;97618.91;;;13.65;76.54
13765;BME280;6953;48.810;9.204;2024-03-02T08:35:47;97657.19;;;15.32;68.84
13765;BME280;6953;48.810;9.204;2024-03-02T08:38:13;97615.31;;;16.51;62.65
13765;BME280;6953;48.810;9.204;2024-03-02T08:40:38;97546.59;;;16.85;56.81
13765;BME280;6953;48.810;9.204;2024-03-02T08:43:04;97576.81;;;17.46;56.53
13765;BME280;6953;48.810;9.204;2024-03-02T08:45:29;97643.16;;;18.76;52.07
13765;BME280;6953;48.810;9.204;2024-03-02T08:47:54;97525.50;;;19.81;44.75
13765;BME280;6953;48.810;9.204;2024-03-02T08:50:19;97647.34;;;21.52;41.70
13765;BME280;6953;48.810;9.204;2024-03-02T08:52:45;97649.88;;;22.37;38.00
13765;BME280;6953;48.810;9.204;2024-03-02T08:55:10;97652.28;;;23.34;34.43
13765;BME280;6953;48.810;9.204;2024-03-02T08:57:36;97482.28;;;22.23;33.17
13765;BME280;6953;48.810;9.204;2024-03-02T09:00:01;97632.41;;;23.72;32.96
13765;BME280;6953;48.810;9.204;2024-03-02T09:02:27;97659.34;;;24.35;31.20
13765;BME280;6953;48.810;9.204;2024-03-02T09:04:53;97651.78;;;23.89;31.22
13765;BME280;6953;48.810;9.204;2024-03-02T09:07:18;97607.97;;;23.46;30.94
13765;BME280;6953;48.810;9.204;2024-03-02T09:09:43;97659.69;;;24.11;30.62
13765;BME280;6953;48.810;9.204;2024-03-02T09:12:09;97658.16;;;24.58;30.15
13765;BME280;6953;48.810;9.204;2024-03-02T09:14:35;97660.63;;;25.76;28.53
13765;BME280;6953;48.810;9.204;2024-03-02T09:17:02;97545.34;;;25.40;27.17
13765;BME280;6953;48.810;9.204;2024-03-02T09:19:27;97506.69;;;25.35;26.92
13765;BME280;6953;48.810;9.204;2024-03-02T09:21:53;97684.13;;;26.80;26.59
13765;BME280;6953;48.810;9.204;2024-03-02T09:24:20;97494.25;;;25.94;26.20
13765;BME280;6953;48.810;9.204;2024-03-02T09:26:45;97484.72;;;26.11;25.83
13765;BME280;6953;48.810;9.204;2024-03-02T09:29:11;97530.50;;;27.45;24.89
13765;BME280;6953;48.810;9.204;2024-03-02T09:31:40;97654.88;;;29.29;23.06
13765;BME280;6953;48.810;9.204;2024-03-02T09:34:06;97633.22;;;29.89;22.31
13765;BME280;6953;48.810;9.204;2024-03-02T09:36:31;97510.06;;;28.79;22.35
13765;BME280;6953;48.810;9.204;2024-03-02T09:38:57;97616.78;;;28.94;22.56
13765;BME280;6953;48.810;9.204;2024-03-02T09:41:22;97672.59;;;29.67;22.66
13765;BME280;6953;48.810;9.204;2024-03-02T09:43:48;97609.28;;;28.65;23.13
13765;BME280;6953;48.810;9.204;2024-03-02T09:46:15;97409.75;;;27.60;23.08
13765;BME280;6953;48.810;9.204;2024-03-02T09:48:44;97681.84;;;29.42;21.83
13765;BME280;6953;48.810;9.204;2024-03-02T09:51:10;97637.09;;;29.64;21.94
13765;BME280;6953;48.810;9.204;2024-03-02T09:53:36;97611.44;;;30.02;22.14
13765;BME280;6953;48.810;9.204;2024-03-02T09:56:01;97509.59;;;30.30;20.45
13765;BME280;6953;48.810;9.204;2024-03-02T09:58:26;97497.19;;;31.21;19.83
13765;BME280;6953;48.810;9.204;2024-03-02T10:00:52;97527.53;;;32.41;18.95
13765;BME280;6953;48.810;9.204;2024-03-02T10:03:20;97635.25;;;33.78;18.40
13765;BME280;6953;48.810;9.204;2024-03-02T10:05:47;97649.63;;;33.57;18.08
13765;BME280;6953;48.810;9.204;2024-03-02T10:08:12;97691.91;;;34.03;17.72
13765;BME280;6953;48.810;9.204;2024-03-02T10:10:39;97681.28;;;34.65;17.26
13765;BME280;6953;48.810;9.204;2024-03-02T10:13:12;97683.75;;;34.03;17.59
13765;BME280;6953;48.810;9.204;2024-03-02T10:15:39;97610.47;;;33.80;17.30
13765;BME280;6953;48.810;9.204;2024-03-02T10:18:12;97670.91;;;34.41;16.82
13765;BME280;6953;48.810;9.204;2024-03-02T10:20:39;97480.91;;;32.32;17.86
13765;BME280;6953;48.810;9.204;2024-03-02T10:23:15;97528.50;;;32.07;18.48
13765;BME280;6953;48.810;9.204;2024-03-02T10:25:42;97609.69;;;33.84;17.14
13765;BME280;6953;48.810;9.204;2024-03-02T10:28:07;97592.13;;;34.97;16.26
13765;BME280;6953;48.810;9.204;2024-03-02T10:30:36;97677.28;;;34.73;16.91
13765;BME280;6953;48.810;9.204;2024-03-02T10:33:02;97601.34;;;32.99;17.81
13765;BME280;6953;48.810;9.204;2024-03-02T10:35:28;97577.63;;;32.78;18.10
13765;BME280;6953;48.810;9.204;2024-03-02T10:37:54;97653.03;;;33.15;18.05
13765;BME280;6953;48.810;9.204;2024-03-02T10:40:22;97625.63;;;33.38;17.79
13765;BME280;6953;48.810;9.204;2024-03-02T10:42:50;97646.19;;;34.26;17.08
13765;BME280;6953;48.810;9.204;2024-03-02T10:45:16;97658.81;;;34.80;16.90
13765;BME280;6953;48.810;9.204;2024-03-02T10:47:47;97662.16;;;34.39;17.20
13765;BME280;6953;48.810;9.204;2024-03-02T10:50:12;97639.09;;;34.25;17.34
13765;BME280;6953;48.810;9.204;2024-03-02T10:52:38;97643.00;;;35.08;16.75
13765;BME280;6953;48.810;9.204;2024-03-02T10:55:05;97617.06;;;34.79;16.94
13765;BME280;6953;48.810;9.204;2024-03-02T10:57:53;97394.78;;;33.25;16.74
13765;BME280;6953;48.810;9.204;2024-03-02T11:00:19;97633.81;;;34.93;16.99
13765;BME280;6953;48.810;9.204;2024-03-02T11:02:56;97478.34;;;33.29;16.78
13765;BME280;6953;48.810;9.204;2024-03-02T11:05:36;97621.16;;;33.65;17.73
13765;BME280;6953;48.810;9.204;2024-03-02T11:08:08;97583.19;;;34.44;16.82
13765;BME280;6953;48.810;9.204;2024-03-02T11:10:56;97529.06;;;34.89;15.94
13765;BME280;6953;48.810;9.204;2024-03-02T11:13:34;97572.00;;;36.01;15.85
13765;BME280;6953;48.810;9.204;2024-03-02T11:16:04;97447.06;;;35.05;16.11
13765;BME280;6953;48.810;9.204;2024-03-02T11:18:31;97551.03;;;36.06;15.54
13765;BME280;6953;48.810;9.204;2024-03-02T11:20:57;97614.56;;;35.82;15.21
13765;BME280;6953;48.810;9.204;2024-03-02T11:23:34;97552.34;;;35.37;15.55
13765;BME280;6953;48.810;9.204;2024-03-02T11:26:18;97599.03;;;36.58;15.43
13765;BME280;6953;48.810;9.204;2024-03-02T11:28:44;97572.03;;;35.96;15.51
13765;BME280;6953;48.810;9.204;2024-03-02T11:31:09;97541.03;;;34.83;16.26
13765;BME280;6953;48.810;9.204;2024-03-02T11:33:34;97558.81;;;35.27;15.95
13765;BME280;6953;48.810;9.204;2024-03-02T11:36:00;97603.19;;;35.12;15.79
13765;BME280;6953;48.810;9.204;2024-03-02T11:38:28;97574.38;;;35.26;15.91
13765;BME280;6953;48.810;9.204;2024-03-02T11:40:53;97348.03;;;34.48;16.29
13765;BME280;6953;48.810;9.204;2024-03-02T11:43:20;97444.41;;;35.10;15.46
13765;BME280;6953;48.810;9.204;2024-03-02T11:45:46;97556.13;;;35.88;15.19
13765;BME280;6953;48.810;9.204;2024-03-02T11:48:14;97576.31;;;37.28;14.44
13765;BME280;6953;48.810;9.204;2024-03-02T11:50:42;97566.44;;;37.37;13.79
13765;BME280;6953;48.810;9.204;2024-03-02T11:53:10;97563.16;;;36.90;14.17
13765;BME280;6953;48.810;9.204;2024-03-02T11:55:36;97572.50;;;35.83;14.82
13765;BME280;6953;48.810;9.204;2024-03-02T11:58:03;97562.56;;;36.33;14.32
13765;BME280;6953;48.810;9.204;2024-03-02T12:00:29;97558.69;;;36.14;13.73
13765;BME280;6953;48.810;9.204;2024-03-02T12:03:07;97502.47;;;34.38;14.45
13765;BME280;6953;48.810;9.204;2024-03-02T12:05:34;97543.59;;;34.36;15.49
13765;BME280;6953;48.810;9.204;2024-03-02T12:08:04;97267.25;;;33.28;15.30
13765;BME280;6953;48.810;9.204;2024-03-02T12:10:30;97523.19;;;33.65;15.38
13765;BME280;6953;48.810;9.204;2024-03-02T12:12:57;97468.75;;;32.35;15.81
13765;BME280;6953;48.810;9.204;2024-03-02T12:15:25;97274.69;;;30.99;16.49
13765;BME280;6953;48.810;9.204;2024-03-02T12:17:56;97514.66;;;33.02;16.15
13765;BME280;6953;48.810;9.204;2024-03-02T12:20:22;97261.06;;;32.42;15.80
13765;BME280;6953;48.810;9.204;2024-03-02T12:22:53;97505.09;;;34.59;15.50
13765;BME280;6953;48.810;9.204;2024-03-02T12:25:20;97351.53;;;34.08;15.06
13765;BME280;6953;48.810;9.204;2024-03-02T12:27:47;97526.59;;;34.87;15.41
13765;BME280;6953;48.810;9.204;2024-03-02T12:30:16;97260.72;;;34.85;14.07
13765;BME280;6953;48.810;9.204;2024-03-02T12:32:41;97482.47;;;36.87;13.65
13765;BME280;6953;48.810;9.204;2024-03-02T12:35:07;97328.59;;;36.32;13.18
13765;BME280;6953;48.810;9.204;2024-03-02T12:37:32;97346.38;;;36.30;13.23
13765;BME280;6953;48.810;9.204;2024-03-02T12:39:58;97478.09;;;36.81;13.30
13765;BME280;6953;48.810;9.204;2024-03-02T12:42:24;97474.56;;;36.76;13.07
13765;BME280;6953;48.810;9.204;2024-03-02T12:44:52;97507.06;;;37.22;13.31
13765;BME280;6953;48.810;9.204;2024-03-02T12:47:19;97432.13;;;37.08;13.47
13765;BME280;6953;48.810;9.204;2024-03-02T12:49:45;97296.34;;;36.34;13.43
13765;BME280;6953;48.810;9.204;2024-03-02T12:52:12;97444.03;;;37.47;12.70
13765;BME280;6953;48.810;9.204;2024-03-02T12:54:38;97295.31;;;37.03;12.51
13765;BME280;6953;48.810;9.204;2024-03-02T12:57:04;97457.72;;;38.00;12.62
13765;BME280;6953;48.810;9.204;2024-03-02T12:59:29;97434.47;;;37.45;12.92
13765;BME280;6953;48.810;9.204;2024-03-02T13:01:56;97451.88;;;36.95;13.28
13765;BME280;6953;48.810;9.204;2024-03-02T13:04:27;97459.16;;;37.20;13.07
13765;BME280;6953;48.810;9.204;2024-03-02T13:06:56;97390.53;;;37.06;13.03
13765;BME280;6953;48.810;9.204;2024-03-02T13:09:23;97478.09;;;36.22;13.62
13765;BME280;6953;48.810;9.204;2024-03-02T13:11:49;97494.53;;;33.41;15.73